Time;durP1;ratioP1;P1;durP2;ratioP2;P2;SDS_P1;SDS_P2;PMS_P1;PMS_P2;Temp;Humidity;BMP_temperature;BMP_pressure;BME280_temperature;BME280_humidity;BME280_pressure;Samples;Min_cycle;Max_cycle;Signal;HPM_P1;HPM_P2
2022/07/01 00:01:54;;;;;;;6.28;4.80;;;17.70;78.00;;;;;;4914769;29;20122;-46
2022/07/01 00:04:21;;;;;;;5.68;5.15;;;17.70;78.00;;;;;;4914599;29;20411;-44
2022/07/01 00:07:10;;;;;;;6.53;5.00;;;17.70;78.10;;;;;;4909659;29;20123;-44
2022/07/01 00:09:39;;;;;;;6.27;4.47;;;17.70;78.10;;;;;;4914827;29;20048;-45
2022/07/01 00:12:07;;;;;;;6.20;4.35;;;17.70;78.20;;;;;;4909154;29;20055;-44
2022/07/01 00:14:34;;;;;;;6.75;4.55;;;17.60;78.40;;;;;;4913856;29;20043;-44
2022/07/01 00:17:03;;;;;;;6.30;4.63;;;17.60;78.50;;;;;;4914567;29;20091;-44
2022/07/01 00:19:29;;;;;;;5.90;4.03;;;17.60;78.50;;;;;;4914012;29;20568;-44
2022/07/01 00:21:58;;;;;;;5.53;4.55;;;17.60;78.50;;;;;;4909812;29;20056;-44
2022/07/01 00:24:28;;;;;;;7.00;4.85;;;17.60;78.40;;;;;;4913889;29;20036;-46
2022/07/01 00:26:59;;;;;;;;;;;17.60;78.50;;;;;;4914704;29;20096;-46
2022/07/01 00:29:34;;;;;;;5.47;4.03;;;17.60;79.20;;;;;;4906104;29;22298;-46
2022/07/01 00:32:04;;;;;;;4.97;4.43;;;17.60;78.20;;;;;;4912823;29;20052;-44
2022/07/01 00:34:31;;;;;;;6.43;4.90;;;17.50;78.30;;;;;;4913449;29;20056;-46
2022/07/01 00:36:57;;;;;;;5.50;4.55;;;17.60;78.50;;;;;;4914356;29;20044;-49
2022/07/01 00:39:25;;;;;;;6.95;4.95;;;17.50;78.40;;;;;;4911710;29;20088;-45
2022/07/01 00:41:54;;;;;;;6.13;5.20;;;17.50;78.40;;;;;;4912060;29;20076;-46
2022/07/01 00:44:26;;;;;;;6.07;5.45;;;17.50;78.60;;;;;;4906624;29;20071;-47
2022/07/01 00:46:56;;;;;;;5.78;4.97;;;17.50;78.60;;;;;;4913814;29;20048;-48
2022/07/01 00:49:27;;;;;;;6.60;5.35;;;17.50;78.70;;;;;;4900694;29;20044;-45
2022/07/01 00:51:57;;;;;;;7.50;4.85;;;17.40;78.60;;;;;;4913678;29;20036;-48
2022/07/01 00:54:26;;;;;;;7.65;5.07;;;17.40;78.50;;;;;;4913899;29;20131;-46
2022/07/01 00:56:55;;;;;;;7.03;4.97;;;17.50;78.70;;;;;;4912467;29;20081;-46
2022/07/01 00:59:26;;;;;;;7.00;5.30;;;17.40;78.70;;;;;;4910228;29;20040;-45
2022/07/01 01:01:57;;;;;;;8.90;5.78;;;17.40;78.80;;;;;;4913928;29;20424;-46
2022/07/01 01:04:27;;;;;;;7.93;4.67;;;17.40;78.90;;;;;;4910891;29;20115;-47
2022/07/01 01:06:56;;;;;;;7.88;5.15;;;17.40;79.10;;;;;;4909436;29;20048;-47
2022/07/01 01:09:23;;;;;;;10.63;5.47;;;17.40;79.10;;;;;;4909791;29;20439;-45
2022/07/01 01:11:50;;;;;;;7.85;5.88;;;17.40;79.10;;;;;;4913490;29;20083;-47
2022/07/01 01:14:17;;;;;;;8.30;5.72;;;17.40;79.20;;;;;;4913403;29;20096;-48
2022/07/01 01:16:43;;;;;;;9.60;6.35;;;17.40;79.40;;;;;;4910871;29;20036;-47
2022/07/01 01:19:14;;;;;;;7.93;5.18;;;17.50;79.40;;;;;;4912565;29;20059;-46
2022/07/01 01:21:41;;;;;;;8.85;6.07;;;17.40;79.20;;;;;;4913462;29;20386;-46
2022/07/01 01:24:08;;;;;;;9.90;6.25;;;17.40;79.20;;;;;;4910590;29;20130;-47
2022/07/01 01:26:35;;;;;;;10.80;6.68;;;17.40;79.00;;;;;;4896936;29;20107;-49
2022/07/01 01:29:08;;;;;;;10.23;7.32;;;17.40;78.90;;;;;;4912916;29;20036;-47
2022/07/01 01:31:37;;;;;;;10.00;6.25;;;17.40;79.20;;;;;;4911960;29;20047;-48
2022/07/01 01:34:06;;;;;;;9.93;6.50;;;17.50;79.30;;;;;;4912985;29;20048;-46
2022/07/01 01:36:33;;;;;;;9.52;6.97;;;17.40;79.20;;;;;;4910546;29;20036;-46
2022/07/01 01:39:12;;;;;;;10.13;6.88;;;17.40;79.10;;;;;;4912844;29;20047;-48
2022/07/01 01:41:39;;;;;;;12.30;6.72;;;17.40;79.00;;;;;;4913453;29;20096;-45
2022/07/01 01:44:06;;;;;;;11.70;6.63;;;17.50;79.10;;;;;;4909350;29;20048;-47
2022/07/01 01:46:34;;;;;;;10.40;7.05;;;17.40;79.10;;;;;;4909440;29;20064;-50
2022/07/01 01:49:05;;;;;;;12.15;7.43;;;17.40;79.40;;;;;;4912848;29;20668;-45
2022/07/01 01:51:32;;;;;;;9.65;6.72;;;17.40;79.40;;;;;;4913438;29;20045;-45
2022/07/01 01:53:59;;;;;;;10.02;7.38;;;17.40;79.40;;;;;;4913670;29;20044;-46
2022/07/01 01:56:31;;;;;;;10.77;7.07;;;17.40;79.50;;;;;;4908249;29;20052;-47
2022/07/01 01:58:58;;;;;;;7.93;6.78;;;17.40;79.60;;;;;;4912658;29;20052;-48
2022/07/01 02:01:27;;;;;;;9.45;6.97;;;17.40;79.60;;;;;;4912942;29;20072;-45
2022/07/01 02:03:54;;;;;;;10.40;6.40;;;17.40;79.50;;;;;;4906190;29;20104;-48
2022/07/01 02:06:21;;;;;;;10.50;6.68;;;17.40;79.40;;;;;;4912598;29;20048;-45
2022/07/01 02:08:51;;;;;;;7.22;5.72;;;17.40;79.90;;;;;;4912529;29;20056;-47
2022/07/01 02:11:18;;;;;;;7.78;5.95;;;17.40;79.00;;;;;;4910874;29;20898;-45
2022/07/01 02:13:48;;;;;;;10.38;6.22;;;17.40;78.90;;;;;;4910647;29;20088;-47
2022/07/01 02:16:16;;;;;;;10.60;5.95;;;17.40;79.00;;;;;;4912865;29;20076;-48
2022/07/01 02:18:42;;;;;;;8.02;5.72;;;17.40;79.10;;;;;;4912623;29;20047;-46
2022/07/01 02:21:11;;;;;;;9.43;5.57;;;17.40;79.20;;;;;;4908285;29;20037;-47
2022/07/01 02:23:40;;;;;;;7.88;5.95;;;17.40;79.30;;;;;;4906328;29;20072;-48
2022/07/01 02:26:07;;;;;;;9.20;6.28;;;17.30;79.30;;;;;;4912132;29;20056;-48
2022/07/01 02:28:34;;;;;;;5.88;5.05;;;17.40;79.30;;;;;;4912622;29;20059;-49
2022/07/01 02:31:02;;;;;;;7.53;5.80;;;17.40;79.50;;;;;;4909009;29;20048;-48
2022/07/01 02:33:30;;;;;;;8.13;5.65;;;17.40;79.50;;;;;;4913836;29;20036;-48
2022/07/01 02:35:58;;;;;;;8.38;5.63;;;17.40;79.50;;;;;;4912289;29;20099;-46
2022/07/01 02:38:27;;;;;;;7.05;5.95;;;17.40;79.60;;;;;;4912845;29;20421;-45
2022/07/01 02:40:54;;;;;;;7.63;5.65;;;17.40;79.40;;;;;;4905646;29;20045;-46
2022/07/01 02:43:21;;;;;;;9.48;6.03;;;17.40;79.50;;;;;;4916496;29;20040;-45
2022/07/01 02:45:53;;;;;;;8.57;5.95;;;17.40;79.40;;;;;;4916133;29;20721;-44
2022/07/01 02:48:30;;;;;;;10.00;6.13;;;17.40;79.40;;;;;;4917633;29;20103;-47
2022/07/01 02:50:57;;;;;;;8.32;5.93;;;17.40;79.10;;;;;;4911834;29;20055;-46
2022/07/01 02:53:24;;;;;;;8.10;5.43;;;17.30;78.90;;;;;;4917560;29;20060;-46
2022/07/01 02:55:51;;;;;;;6.10;4.70;;;17.30;78.80;;;;;;4916287;29;20099;-45
2022/07/01 02:58:18;;;;;;;7.50;5.32;;;17.30;78.90;;;;;;4913756;29;20040;-48
2022/07/01 03:00:46;;;;;;;7.55;4.63;;;17.30;78.90;;;;;;4913585;29;20032;-46
2022/07/01 03:03:12;;;;;;;6.90;4.35;;;17.30;79.00;;;;;;4917038;29;20052;-47
2022/07/01 03:05:39;;;;;;;5.03;4.00;;;17.20;79.00;;;;;;4915668;29;20051;-46
2022/07/01 03:08:06;;;;;;;6.00;4.03;;;17.20;79.00;;;;;;4911770;29;20294;-46
2022/07/01 03:10:33;;;;;;;6.22;4.07;;;17.20;79.20;;;;;;4914410;29;20052;-45
2022/07/01 03:13:05;;;;;;;5.40;4.22;;;17.20;79.30;;;;;;4917349;29;20052;-48
2022/07/01 03:15:34;;;;;;;5.28;4.03;;;17.20;79.50;;;;;;4916143;29;20044;-45
2022/07/01 03:18:00;;;;;;;5.47;3.80;;;17.20;79.40;;;;;;4911646;29;20079;-46
2022/07/01 03:20:27;;;;;;;5.13;4.00;;;17.30;79.70;;;;;;4909643;29;20040;-47
2022/07/01 03:22:57;;;;;;;7.10;5.00;;;17.20;79.80;;;;;;4917297;29;20056;-46
2022/07/01 03:25:26;;;;;;;5.35;4.53;;;17.20;79.90;;;;;;4916276;29;20100;-46
2022/07/01 03:27:53;;;;;;;4.97;4.05;;;17.20;79.80;;;;;;4914107;29;20504;-46
2022/07/01 03:30:19;;;;;;;6.20;3.80;;;17.20;79.60;;;;;;4915434;29;20092;-44
2022/07/01 03:32:46;;;;;;;4.15;3.53;;;17.20;79.60;;;;;;4916408;29;20044;-48
2022/07/01 03:37:58;;;;;;;4.40;3.72;;;17.30;79.40;;;;;;4914489;29;20044;-44
2022/07/01 03:40:25;;;;;;;5.28;3.65;;;17.30;79.30;;;;;;4915840;29;20834;-46
2022/07/01 03:42:52;;;;;;;4.13;3.63;;;17.20;79.20;;;;;;4915731;29;20044;-48
2022/07/01 03:45:19;;;;;;;7.38;4.28;;;17.30;79.10;;;;;;4914757;29;20055;-49
2022/07/01 03:47:49;;;;;;;4.60;3.63;;;17.30;79.20;;;;;;4914148;29;20101;-46
2022/07/01 03:50:21;;;;;;;5.45;4.03;;;17.20;79.30;;;;;;4914090;29;20107;-46
2022/07/01 03:52:48;;;;;;;4.85;3.72;;;17.30;79.40;;;;;;4916642;29;20469;-48
2022/07/01 03:55:18;;;;;;;5.50;3.80;;;17.30;79.60;;;;;;4915078;29;20048;-47
2022/07/01 03:57:47;;;;;;;;;;;17.30;80.00;;;;;;4911743;29;20048;-46
2022/07/01 04:00:14;;;;;;;6.18;4.20;;;17.40;80.90;;;;;;4915539;29;19926;-46
2022/07/01 04:02:45;;;;;;;4.40;3.55;;;17.40;79.80;;;;;;4915888;29;20044;-46
2022/07/01 04:05:12;;;;;;;7.50;4.32;;;17.40;79.30;;;;;;4915430;29;20040;-48
2022/07/01 04:07:39;;;;;;;4.40;3.58;;;17.40;79.50;;;;;;4912489;29;20052;-45
2022/07/01 04:10:14;;;;;;;4.35;3.40;;;17.40;79.60;;;;;;4915625;29;20044;-49
2022/07/01 04:12:40;;;;;;;3.60;3.25;;;17.40;79.80;;;;;;4915799;29;20048;-47
2022/07/01 04:15:15;;;;;;;5.57;3.72;;;17.40;79.90;;;;;;4911095;29;20461;-46
2022/07/01 04:17:41;;;;;;;5.60;3.65;;;17.50;79.90;;;;;;4914674;29;20052;-46
2022/07/01 04:20:09;;;;;;;4.43;3.50;;;17.50;79.90;;;;;;4916031;29;20567;-47
2022/07/01 04:22:35;;;;;;;5.07;3.30;;;17.50;79.90;;;;;;4912053;29;20056;-48
2022/07/01 04:25:04;;;;;;;3.83;3.33;;;17.50;79.90;;;;;;4912390;29;20447;-47
2022/07/01 04:27:38;;;;;;;4.90;3.70;;;17.60;80.10;;;;;;4915289;29;20424;-47
2022/07/01 04:30:05;;;;;;;3.83;3.42;;;17.60;80.10;;;;;;4915134;29;20039;-50
2022/07/01 04:32:33;;;;;;;4.25;3.50;;;17.70;80.10;;;;;;4913423;29;20056;-46
2022/07/01 04:35:00;;;;;;;4.78;3.42;;;17.60;79.60;;;;;;4912049;29;20107;-47
2022/07/01 04:37:29;;;;;;;6.05;3.45;;;17.70;79.60;;;;;;4914917;29;20056;-49
2022/07/01 04:39:56;;;;;;;5.43;3.25;;;17.70;79.70;;;;;;4915279;29;20468;-45
2022/07/01 04:42:23;;;;;;;5.55;3.17;;;17.70;79.60;;;;;;4913322;29;20492;-49
2022/07/01 04:44:50;;;;;;;5.22;3.33;;;17.70;79.60;;;;;;4898916;29;20107;-47
2022/07/01 04:47:22;;;;;;;4.68;3.50;;;17.70;79.30;;;;;;4914759;29;20040;-48
2022/07/01 04:49:49;;;;;;;6.68;3.58;;;17.70;79.30;;;;;;4912787;29;20041;-49
2022/07/01 04:52:18;;;;;;;3.80;3.15;;;17.70;79.30;;;;;;4911692;29;20088;-49
2022/07/01 04:54:53;;;;;;;4.35;3.05;;;17.80;79.30;;;;;;4914959;29;20107;-45
2022/07/01 04:57:32;;;;;;;4.97;3.63;;;17.80;79.40;;;;;;4898115;29;20132;-46
2022/07/01 05:00:02;;;;;;;4.70;3.40;;;17.80;79.10;;;;;;4904429;29;20049;-46
2022/07/01 05:02:32;;;;;;;4.80;3.33;;;17.80;79.20;;;;;;4914129;29;20052;-47
2022/07/01 05:05:01;;;;;;;4.80;3.40;;;17.80;79.20;;;;;;4914583;29;20036;-46
2022/07/01 05:07:28;;;;;;;5.03;3.35;;;17.80;79.00;;;;;;4912720;29;20052;-49
2022/07/01 05:09:59;;;;;;;6.40;3.35;;;17.80;79.00;;;;;;4909180;29;20049;-51
2022/07/01 05:12:28;;;;;;;5.63;3.85;;;17.80;78.90;;;;;;4908778;29;20058;-46
2022/07/01 05:14:55;;;;;;;6.45;3.15;;;17.80;78.90;;;;;;4915095;29;20520;-49
2022/07/01 05:21:55;;;;;;;4.65;3.33;;;17.80;79.00;;;;;;4913510;29;20075;-48
2022/07/01 05:23:03;;;;;;;6.47;4.38;;;17.80;78.60;;;;;;4912483;29;20433;-47
2022/07/01 05:25:30;;;;;;;5.20;3.42;;;17.90;78.70;;;;;;4914797;29;20099;-47
2022/07/01 05:27:57;;;;;;;5.38;4.13;;;17.90;79.00;;;;;;4912269;29;20122;-49
2022/07/01 05:30:24;;;;;;;8.02;3.90;;;17.90;78.80;;;;;;4909799;29;20051;-49
2022/07/01 05:32:55;;;;;;;5.85;4.97;;;17.90;78.80;;;;;;4912751;29;20048;-49
2022/07/01 05:35:22;;;;;;;5.30;4.72;;;17.90;78.80;;;;;;4912707;29;20080;-50
2022/07/01 05:37:58;;;;;;;6.53;4.22;;;17.90;78.80;;;;;;4912653;29;20099;-50
2022/07/01 05:40:28;;;;;;;7.50;4.47;;;17.90;78.50;;;;;;4913775;29;20091;-50
2022/07/01 05:42:55;;;;;;;6.70;4.47;;;17.90;78.60;;;;;;4911781;29;20571;-48
2022/07/01 05:45:23;;;;;;;6.97;4.20;;;18.00;79.00;;;;;;4914700;29;20385;-49
2022/07/01 05:47:51;;;;;;;6.07;3.97;;;17.90;78.80;;;;;;4907994;29;20067;-49
2022/07/01 05:50:23;;;;;;;6.07;4.43;;;18.00;78.60;;;;;;4908012;29;20052;-50
2022/07/01 05:52:52;;;;;;;7.30;5.15;;;18.00;78.10;;;;;;4912643;29;20340;-50
2022/07/01 05:55:19;;;;;;;5.57;4.50;;;18.00;78.20;;;;;;4893927;29;20599;-52
2022/07/01 05:57:46;;;;;;;8.32;4.72;;;18.00;77.80;;;;;;4902431;29;20067;-50
2022/07/01 06:00:14;;;;;;;5.32;4.28;;;18.10;77.70;;;;;;4909496;29;20060;-49
2022/07/01 06:02:43;;;;;;;7.13;4.35;;;18.10;77.80;;;;;;4911937;29;20460;-47
2022/07/01 06:05:13;;;;;;;7.45;4.25;;;18.10;78.10;;;;;;4912674;29;20419;-50
2022/07/01 06:07:41;;;;;;;8.15;5.50;;;18.10;77.90;;;;;;4906963;29;20048;-50
2022/07/01 06:10:11;;;;;;;7.32;4.53;;;18.10;77.60;;;;;;4912289;29;20480;-46
2022/07/01 06:12:39;;;;;;;6.13;4.80;;;18.20;77.70;;;;;;4912328;29;20048;-49
2022/07/01 06:15:12;;;;;;;6.45;4.30;;;18.20;77.80;;;;;;4912791;29;20508;-48
2022/07/01 06:17:41;;;;;;;7.33;4.23;;;18.20;77.80;;;;;;4897659;29;20415;-50
2022/07/01 06:20:08;;;;;;;6.10;5.60;;;18.30;77.60;;;;;;4916477;29;20076;-48
2022/07/01 06:22:35;;;;;;;10.85;6.25;;;18.30;77.50;;;;;;4916778;29;20044;-49
2022/07/01 06:25:04;;;;;;;5.70;5.18;;;18.30;77.20;;;;;;4917102;29;20144;-50
2022/07/01 06:27:31;;;;;;;5.97;5.00;;;18.30;77.80;;;;;;4913949;29;20048;-49
2022/07/01 06:30:00;;;;;;;7.03;4.60;;;18.40;77.40;;;;;;4922406;29;20059;-50
2022/07/01 06:32:32;;;;;;;5.53;4.90;;;18.40;76.90;;;;;;4917374;29;20051;-50
2022/07/01 06:35:00;;;;;;;5.50;4.77;;;18.50;76.40;;;;;;4910824;29;20485;-50
2022/07/01 06:37:30;;;;;;;7.70;4.78;;;18.50;76.20;;;;;;4916814;29;20563;-48
2022/07/01 06:39:57;;;;;;;7.25;4.70;;;18.50;75.70;;;;;;4916571;29;20083;-48
2022/07/01 06:42:24;;;;;;;4.82;4.25;;;18.50;76.00;;;;;;4915265;29;20044;-49
2022/07/01 06:44:57;;;;;;;5.68;4.97;;;18.50;74.90;;;;;;4901727;29;20056;-50
2022/07/01 06:47:29;;;;;;;7.25;5.15;;;18.50;75.20;;;;;;4916888;29;20063;-51
2022/07/01 06:49:56;;;;;;;4.68;4.20;;;18.60;75.10;;;;;;4916288;29;20492;-49
2022/07/01 06:52:29;;;;;;;7.28;4.53;;;18.60;75.00;;;;;;4916867;29;20059;-46
2022/07/01 06:55:00;;;;;;;5.00;4.07;;;18.60;74.10;;;;;;4913722;29;20044;-50
2022/07/01 06:57:27;;;;;;;5.40;4.90;;;18.70;73.60;;;;;;4916929;29;20047;-49
2022/07/01 06:59:54;;;;;;;5.47;4.97;;;18.70;73.20;;;;;;4914122;29;20056;-51
2022/07/01 07:02:21;;;;;;;6.05;4.68;;;18.70;73.10;;;;;;4915816;29;20044;-47
2022/07/01 07:04:58;;;;;;;7.25;5.38;;;18.70;73.60;;;;;;4914048;29;20052;-51
2022/07/01 07:07:27;;;;;;;5.63;4.03;;;18.70;73.50;;;;;;4937577;23;20071;-50
2022/07/01 07:10:01;;;;;;;8.88;5.47;;;18.80;74.00;;;;;;4915431;29;20119;-50
2022/07/01 07:12:28;;;;;;;5.15;3.90;;;18.90;74.00;;;;;;4916581;29;20048;-48
2022/07/01 07:14:54;;;;;;;4.57;3.85;;;18.90;73.70;;;;;;4917798;29;20048;-51
2022/07/01 07:17:21;;;;;;;4.07;3.42;;;19.00;73.30;;;;;;4915043;29;20044;-54
2022/07/01 07:19:49;;;;;;;5.40;3.63;;;19.10;73.20;;;;;;4915175;29;20044;-48
2022/07/01 07:22:18;;;;;;;5.75;2.85;;;19.20;73.00;;;;;;4914645;29;20107;-49
2022/07/01 07:24:45;;;;;;;4.65;3.50;;;19.20;72.80;;;;;;4916304;29;20048;-48
2022/07/01 07:27:13;;;;;;;3.38;2.95;;;19.30;72.30;;;;;;4910292;29;20044;-48
2022/07/01 07:29:42;;;;;;;4.35;3.10;;;19.40;71.80;;;;;;4915087;29;20051;-47
2022/07/01 07:32:13;;;;;;;3.30;2.63;;;19.40;71.60;;;;;;4913909;29;20056;-50
2022/07/01 07:34:44;;;;;;;3.70;2.83;;;19.50;71.10;;;;;;4914527;29;20500;-50
2022/07/01 07:37:11;;;;;;;5.63;2.55;;;19.50;70.50;;;;;;4911394;29;20095;-47
2022/07/01 07:39:38;;;;;;;3.25;2.80;;;19.50;70.30;;;;;;4917012;29;20441;-47
2022/07/01 07:42:05;;;;;;;5.97;2.30;;;19.50;70.20;;;;;;4914855;29;20052;-47
2022/07/01 07:44:32;;;;;;;3.20;1.95;;;19.50;70.10;;;;;;4917772;29;20055;-54
2022/07/01 07:47:01;;;;;;;4.32;2.28;;;19.50;70.60;;;;;;4908267;29;20048;-48
2022/07/01 07:49:34;;;;;;;3.35;2.08;;;19.50;70.70;;;;;;4921465;29;20072;-47
2022/07/01 07:52:03;;;;;;;3.15;1.60;;;19.50;69.60;;;;;;4914819;29;20048;-50
2022/07/01 07:54:35;;;;;;;3.35;1.80;;;19.60;69.40;;;;;;4915239;29;20076;-49
2022/07/01 07:57:03;;;;;;;2.53;1.95;;;19.60;68.80;;;;;;4911198;29;20044;-53
2022/07/01 07:59:29;;;;;;;5.70;2.17;;;19.60;68.60;;;;;;4914497;29;20107;-51
2022/07/01 08:01:56;;;;;;;3.75;2.03;;;19.70;68.40;;;;;;4908589;29;20044;-48
2022/07/01 08:04:25;;;;;;;1.73;1.58;;;19.70;68.80;;;;;;4911459;29;20080;-50
2022/07/01 08:06:52;;;;;;;3.70;2.15;;;19.70;68.90;;;;;;4913312;29;20750;-48
2022/07/01 08:09:21;;;;;;;2.17;1.58;;;19.70;67.70;;;;;;4910533;29;20544;-51
2022/07/01 08:11:48;;;;;;;2.95;1.65;;;19.70;67.20;;;;;;4914894;29;20389;-51
2022/07/01 08:14:15;;;;;;;1.75;1.38;;;19.70;67.00;;;;;;4916493;29;20504;-52
2022/07/01 08:16:49;;;;;;;4.10;1.58;;;19.70;67.30;;;;;;4915162;29;20072;-51
2022/07/01 08:19:16;;;;;;;3.97;1.75;;;19.70;67.40;;;;;;4908794;29;20036;-51
2022/07/01 08:21:45;;;;;;;3.53;1.52;;;19.70;66.90;;;;;;4914188;29;20489;-48
2022/07/01 08:24:15;;;;;;;2.08;1.50;;;19.70;66.80;;;;;;4916312;29;20048;-50
2022/07/01 08:26:44;;;;;;;2.70;1.60;;;19.70;66.50;;;;;;4911752;29;20105;-47
2022/07/01 08:29:12;;;;;;;2.55;2.33;;;19.70;65.80;;;;;;4915024;29;20127;-48
2022/07/01 08:31:41;;;;;;;5.88;2.13;;;19.70;66.00;;;;;;4915017;29;20070;-47
2022/07/01 08:34:09;;;;;;;4.47;1.73;;;19.70;66.50;;;;;;4915871;29;20036;-51
2022/07/01 08:36:38;;;;;;;3.70;1.90;;;19.70;66.40;;;;;;4913051;29;20103;-47
2022/07/01 08:39:07;;;;;;;2.85;1.60;;;19.80;66.80;;;;;;4909244;29;20044;-47
2022/07/01 08:41:41;;;;;;;1.77;1.30;;;19.80;66.10;;;;;;4914322;29;20063;-47
2022/07/01 08:44:08;;;;;;;3.25;1.92;;;19.80;65.70;;;;;;4916310;29;20095;-47
2022/07/01 08:46:35;;;;;;;2.65;1.77;;;19.90;65.50;;;;;;4911101;29;20512;-53
2022/07/01 08:49:07;;;;;;;2.03;1.52;;;19.90;65.60;;;;;;4915596;29;20107;-50
2022/07/01 08:51:37;;;;;;;1.52;1.42;;;19.90;64.90;;;;;;4914799;29;20067;-48
2022/07/01 08:54:06;;;;;;;2.42;1.70;;;19.90;65.10;;;;;;4915775;29;20068;-47
2022/07/01 08:56:45;;;;;;;3.17;1.38;;;20.00;64.70;;;;;;4912090;29;20044;-48
2022/07/01 08:59:25;;;;;;;4.20;1.75;;;20.00;64.50;;;;;;4914853;29;21359;-46
2022/07/01 09:02:04;;;;;;;3.55;1.58;;;20.00;64.00;;;;;;4907637;29;20055;-50
2022/07/01 09:04:34;;;;;;;1.92;1.60;;;20.10;63.60;;;;;;4910953;29;20044;-47
2022/07/01 09:07:10;;;;;;;2.45;1.42;;;20.10;63.80;;;;;;4914513;29;20048;-48
2022/07/01 09:09:39;;;;;;;2.35;1.45;;;20.20;63.40;;;;;;4913789;29;20051;-50
2022/07/01 09:12:06;;;;;;;4.93;1.55;;;20.30;64.00;;;;;;4911924;29;20044;-47
2022/07/01 09:14:34;;;;;;;3.85;1.95;;;20.30;64.00;;;;;;4912891;29;20702;-50
2022/07/01 09:17:19;;;;;;;5.50;1.38;;;20.40;64.60;;;;;;4912218;29;20044;-49
2022/07/01 09:19:51;;;;;;;2.15;1.48;;;20.60;64.00;;;;;;4915399;29;20040;-53
2022/07/01 09:22:20;;;;;;;1.25;1.10;;;20.70;62.40;;;;;;4914380;29;20095;-47
2022/07/01 09:24:53;;;;;;;2.22;0.90;;;20.80;61.80;;;;;;4911717;29;20048;-53
2022/07/01 09:27:25;;;;;;;1.70;0.90;;;20.90;61.50;;;;;;4913310;29;20787;-50
2022/07/01 09:30:01;;;;;;;1.20;0.80;;;20.90;61.60;;;;;;4914655;29;20111;-47
2022/07/01 09:32:27;;;;;;;1.88;1.38;;;21.00;60.70;;;;;;4911021;29;20382;-48
2022/07/01 09:34:54;;;;;;;1.05;0.70;;;21.10;60.80;;;;;;4909367;29;20048;-50
2022/07/01 09:37:27;;;;;;;1.95;0.70;;;21.00;60.00;;;;;;4914118;29;20068;-50
2022/07/01 09:39:58;;;;;;;2.45;1.05;;;21.10;60.30;;;;;;4914851;29;20087;-51
2022/07/01 09:42:27;;;;;;;1.60;0.63;;;21.20;60.20;;;;;;4911975;29;20096;-50
2022/07/01 09:44:59;;;;;;;2.15;0.90;;;21.20;59.90;;;;;;4911306;29;20104;-52
2022/07/01 09:47:32;;;;;;;2.25;0.70;;;21.30;59.10;;;;;;4913534;29;20044;-50
2022/07/01 09:50:00;;;;;;;1.15;0.68;;;21.30;59.90;;;;;;4914278;29;20049;-54
2022/07/01 09:52:27;;;;;;;4.13;0.90;;;21.40;60.00;;;;;;4909211;29;20110;-49
2022/07/01 09:55:06;;;;;;;2.28;0.93;;;21.50;59.30;;;;;;4919133;29;20412;-50
2022/07/01 09:57:33;;;;;;;1.27;0.63;;;21.50;58.50;;;;;;4919728;29;20040;-48
2022/07/01 10:00:05;;;;;;;2.92;0.77;;;21.60;57.90;;;;;;4886142;29;20044;-51
2022/07/01 10:02:33;;;;;;;0.43;0.43;;;21.70;57.30;;;;;;4913927;29;20087;-48
2022/07/01 10:05:14;;;;;;;2.13;0.70;;;21.80;58.00;;;;;;4920932;29;20052;-49
2022/07/01 10:08:15;;;;;;;1.85;0.70;;;21.80;57.90;;;;;;4919797;29;20095;-48
2022/07/01 10:11:16;;;;;;;0.85;0.57;;;21.90;57.60;;;;;;4915322;29;20082;-48
2022/07/01 10:13:43;;;;;;;2.13;0.80;;;22.00;57.80;;;;;;4919049;29;20044;-48
2022/07/01 10:16:14;;;;;;;1.98;0.55;;;22.10;57.70;;;;;;4920102;29;20074;-47
2022/07/01 10:18:42;;;;;;;1.20;0.40;;;22.20;58.10;;;;;;4920542;29;20076;-51
2022/07/01 10:21:24;;;;;;;2.33;0.77;;;22.20;56.10;;;;;;4916846;29;20144;-47
2022/07/01 10:23:51;;;;;;;0.90;0.60;;;22.30;56.30;;;;;;4920873;29;20063;-47
2022/07/01 10:26:29;;;;;;;1.40;0.40;;;22.30;55.80;;;;;;4918956;29;20560;-51
2022/07/01 10:28:55;;;;;;;2.25;0.60;;;22.30;54.00;;;;;;4918638;29;20103;-48
2022/07/01 10:31:36;;;;;;;1.00;0.47;;;22.40;55.10;;;;;;4915495;29;20151;-46
2022/07/01 10:34:10;;;;;;;1.30;0.35;;;22.50;54.90;;;;;;4920486;29;20044;-47
2022/07/01 10:36:37;;;;;;;0.85;0.40;;;22.50;55.20;;;;;;4918442;29;20047;-50
2022/07/01 10:39:10;;;;;;;1.17;0.70;;;22.50;55.50;;;;;;4919181;29;20091;-49
2022/07/01 10:41:53;;;;;;;0.57;0.38;;;22.60;54.60;;;;;;4903275;29;20067;-48
2022/07/01 10:45:06;;;;;;;1.10;0.35;;;22.60;55.00;;;;;;4913214;29;20130;-48
2022/07/01 10:47:44;;;;;;;0.98;0.80;;;22.70;52.80;;;;;;4916210;29;20048;-48
2022/07/01 10:50:20;;;;;;;0.85;0.50;;;22.80;53.40;;;;;;4914500;29;20036;-51
2022/07/01 10:53:00;;;;;;;1.65;0.50;;;22.80;52.40;;;;;;4919558;29;20052;-48
2022/07/01 10:55:58;;;;;;;1.48;0.60;;;22.90;52.20;;;;;;4900258;29;20053;-47
2022/07/01 10:58:41;;;;;;;2.17;0.68;;;23.00;52.40;;;;;;4904018;29;20801;-50
2022/07/01 11:01:14;;;;;;;1.92;1.15;;;23.10;51.30;;;;;;4924934;29;20058;-48
2022/07/01 11:03:42;;;;;;;2.08;0.50;;;23.30;52.30;;;;;;4919032;29;20119;-47
2022/07/01 11:06:11;;;;;;;1.65;0.93;;;23.40;52.10;;;;;;4915875;29;20555;-47
2022/07/01 11:08:38;;;;;;;0.82;0.60;;;23.50;51.70;;;;;;4911030;29;20044;-52
2022/07/01 11:11:05;;;;;;;1.58;0.45;;;23.60;51.20;;;;;;4916737;29;20052;-52
2022/07/01 11:13:34;;;;;;;5.57;0.75;;;23.70;50.30;;;;;;4900192;29;20056;-48
2022/07/01 11:16:01;;;;;;;0.90;0.50;;;23.80;49.90;;;;;;4915360;29;20084;-50
2022/07/01 11:18:30;;;;;;;0.82;0.45;;;23.80;50.20;;;;;;4912526;29;20389;-49
2022/07/01 11:21:09;;;;;;;3.42;0.98;;;23.80;49.50;;;;;;4916937;29;20044;-50
2022/07/01 11:23:38;;;;;;;0.60;0.50;;;23.80;48.70;;;;;;4897913;29;20044;-50
2022/07/01 11:26:25;;;;;;;0.65;0.50;;;23.80;48.10;;;;;;4901251;29;20040;-54
2022/07/01 11:29:00;;;;;;;1.38;0.68;;;23.80;47.50;;;;;;4914258;29;20403;-48
2022/07/01 11:31:31;;;;;;;2.38;0.52;;;23.80;47.90;;;;;;4915692;29;20048;-51
2022/07/01 11:34:01;;;;;;;1.60;0.50;;;23.80;48.30;;;;;;4915309;29;20052;-50
2022/07/01 11:39:22;;;;;;;1.27;0.43;;;23.90;47.60;;;;;;4917048;29;20044;-50
2022/07/01 11:41:57;;;;;;;1.73;0.60;;;24.00;49.00;;;;;;4915394;29;20572;-51
2022/07/01 11:44:38;;;;;;;1.38;0.60;;;24.10;47.70;;;;;;4912992;29;20032;-50
2022/07/01 11:47:21;;;;;;;0.73;0.45;;;24.20;47.10;;;;;;4914808;29;20080;-51
2022/07/01 11:49:49;;;;;;;2.67;0.60;;;24.20;46.50;;;;;;4916784;29;20501;-54
2022/07/01 11:52:21;;;;;;;4.68;0.95;;;24.20;47.50;;;;;;4915696;29;20698;-49
2022/07/01 11:54:55;;;;;;;2.63;0.50;;;24.30;47.60;;;;;;4910265;29;20040;-50
2022/07/01 11:57:43;;;;;;;4.72;0.95;;;24.30;47.20;;;;;;4910871;29;20054;-48
2022/07/01 12:00:13;;;;;;;2.47;0.68;;;24.30;47.90;;;;;;4913838;29;20060;-48
2022/07/01 12:02:49;;;;;;;3.25;0.68;;;24.40;47.10;;;;;;4911780;29;20063;-48
2022/07/01 12:05:22;;;;;;;1.63;0.60;;;24.50;46.50;;;;;;4910039;29;20119;-54
2022/07/01 12:07:57;;;;;;;1.38;0.68;;;24.50;47.20;;;;;;4914964;29;20040;-51
2022/07/01 12:10:25;;;;;;;;;;;24.50;46.80;;;;;;4897715;29;20093;-49
2022/07/01 12:12:52;;;;;;;3.25;0.65;;;24.70;48.00;;;;;;4912292;29;19994;-51
2022/07/01 12:15:20;;;;;;;1.13;0.70;;;24.70;47.70;;;;;;4907477;29;20044;-49
2022/07/01 12:17:50;;;;;;;1.65;0.52;;;24.70;46.60;;;;;;4915566;29;20052;-51
2022/07/01 12:20:31;;;;;;;1.80;0.55;;;24.70;47.50;;;;;;4914464;29;20516;-49
2022/07/01 12:23:14;;;;;;;1.88;0.50;;;24.80;45.70;;;;;;4909040;29;20120;-47
2022/07/01 12:25:51;;;;;;;3.55;0.60;;;24.80;45.90;;;;;;4906819;29;20107;-52
2022/07/01 12:28:43;;;;;;;2.67;0.50;;;24.80;45.80;;;;;;4915494;29;20067;-51
2022/07/01 12:31:10;;;;;;;1.65;0.63;;;24.70;45.50;;;;;;4906258;29;20119;-48
2022/07/01 12:33:39;;;;;;;0.98;0.50;;;24.70;46.60;;;;;;4913907;29;20099;-51
2022/07/01 12:36:07;;;;;;;1.83;0.50;;;24.70;46.50;;;;;;4914143;29;20047;-48
2022/07/01 12:38:34;;;;;;;1.67;0.40;;;24.70;46.60;;;;;;4915440;29;20433;-53
2022/07/01 12:41:24;;;;;;;1.27;0.73;;;24.90;45.30;;;;;;4913209;29;20037;-47
2022/07/01 12:43:51;;;;;;;0.70;0.32;;;24.90;45.20;;;;;;4912211;29;20044;-47
2022/07/01 12:46:32;;;;;;;1.42;0.50;;;24.90;45.20;;;;;;4907107;29;20079;-49
2022/07/01 12:49:02;;;;;;;1.77;0.60;;;25.00;45.10;;;;;;4914584;29;20048;-47
2022/07/01 12:51:32;;;;;;;;;;;25.10;44.70;;;;;;4912065;29;20048;-47
2022/07/01 12:54:02;;;;;;;1.25;0.50;;;25.20;46.50;;;;;;4910040;29;20478;-47
2022/07/01 12:56:29;;;;;;;1.75;0.38;;;25.30;44.90;;;;;;4914235;29;20048;-51
2022/07/01 12:58:56;;;;;;;1.58;0.40;;;25.30;44.60;;;;;;4915806;29;20100;-48
2022/07/01 13:01:28;;;;;;;1.10;0.47;;;25.40;44.00;;;;;;4904459;29;20041;-50
2022/07/01 13:03:57;;;;;;;1.65;0.63;;;25.60;45.20;;;;;;4915482;29;20066;-52
2022/07/01 13:06:24;;;;;;;5.28;0.43;;;25.70;45.20;;;;;;4914364;29;20040;-48
2022/07/01 13:08:52;;;;;;;3.28;1.05;;;26.00;45.30;;;;;;4915058;29;20084;-49
2022/07/01 13:11:19;;;;;;;2.53;0.57;;;26.10;44.60;;;;;;4909241;29;20052;-47
2022/07/01 13:13:51;;;;;;;2.28;0.40;;;26.30;43.30;;;;;;4975890;23;20623;-49